createdAt,value
2023-03-04T00:00:25.811Z,-1.84
2023-03-04T00:02:55.077Z,-1.98
2023-03-04T00:05:24.234Z,-1.86
2023-03-04T00:07:54.335Z,-1.83
2023-03-04T00:13:05.366Z,-1.90
2023-03-04T00:15:34.396Z,-1.94
2023-03-04T00:18:08.596Z,-1.98
2023-03-04T00:20:37.868Z,-1.89
2023-03-04T00:23:07.370Z,-1.93
2023-03-04T00:25:38.611Z,-1.97
2023-03-04T00:28:07.781Z,-2.02
2023-03-04T00:30:36.890Z,-2.09
2023-03-04T00:33:06.145Z,-2.17
2023-03-04T00:35:35.517Z,-2.21
2023-03-04T00:38:04.875Z,-2.26
2023-03-04T00:40:34.216Z,-2.15
2023-03-04T00:43:05.728Z,-2.07
2023-03-04T00:45:41.278Z,-2.05
2023-03-04T00:48:11.037Z,-2.28
2023-03-04T00:50:40.484Z,-1.95
2023-03-04T00:53:14.702Z,-1.92
2023-03-04T00:55:44.819Z,-2.00
2023-03-04T00:58:16.876Z,-1.87
2023-03-04T01:00:46.439Z,-1.87
2023-03-04T01:03:15.548Z,-1.85
2023-03-04T01:05:45.203Z,-1.86
2023-03-04T01:08:14.291Z,-1.88
2023-03-04T01:10:43.646Z,-2.01
2023-03-04T01:13:12.868Z,-1.86
2023-03-04T01:15:44.289Z,-1.95
2023-03-04T01:18:14.403Z,-1.92
2023-03-04T01:20:43.931Z,-1.96
2023-03-04T01:23:13.084Z,-1.99
2023-03-04T01:25:43.879Z,-2.29
2023-03-04T01:28:18.429Z,-2.27
2023-03-04T01:30:49.986Z,-2.21
2023-03-04T01:33:19.269Z,-2.36
2023-03-04T01:35:48.737Z,-2.31
2023-03-04T01:38:18.286Z,-2.12
2023-03-04T01:41:07.035Z,-2.02
2023-03-04T01:43:38.431Z,-2.02
2023-03-04T01:46:09.783Z,-1.98
2023-03-04T01:48:40.753Z,-2.05
2023-03-04T01:51:16.001Z,-2.04
2023-03-04T01:53:45.899Z,-2.13
2023-03-04T01:56:20.796Z,-1.96
2023-03-04T01:59:12.259Z,-1.89
2023-03-04T02:01:45.247Z,-1.90
2023-03-04T02:06:52.447Z,-1.94
2023-03-04T02:09:26.937Z,-1.95
2023-03-04T02:11:57.387Z,-2.17
2023-03-04T02:14:26.934Z,-2.15
2023-03-04T02:17:03.601Z,-2.03
2023-03-04T02:19:44.055Z,-1.94
2023-03-04T02:22:18.305Z,-1.86
2023-03-04T02:24:52.890Z,-1.86
2023-03-04T02:27:25.146Z,-1.93
2023-03-04T02:32:30.119Z,-2.09
2023-03-04T02:34:59.407Z,-2.12
2023-03-04T02:37:35.171Z,-2.11
2023-03-04T02:40:04.523Z,-2.13
2023-03-04T02:42:35.790Z,-2.11
2023-03-04T02:45:05.216Z,-2.14
2023-03-04T02:47:34.332Z,-2.24
2023-03-04T02:50:03.938Z,-2.31
2023-03-04T02:52:33.154Z,-2.31
2023-03-04T02:55:02.437Z,-2.37
2023-03-04T02:57:39.988Z,-2.44
2023-03-04T03:00:11.294Z,-2.58
2023-03-04T03:02:47.575Z,-2.72
2023-03-04T03:05:17.084Z,-2.99
2023-03-04T03:10:27.677Z,-2.61
2023-03-04T03:12:59.585Z,-2.58
2023-03-04T03:15:40.350Z,-2.67
2023-03-04T03:18:09.920Z,-2.66
2023-03-04T03:20:39.221Z,-2.55
2023-03-04T03:23:13.624Z,-2.54
2023-03-04T03:25:42.896Z,-2.52
2023-03-04T03:28:14.404Z,-2.57
2023-03-04T03:30:43.888Z,-2.60
2023-03-04T03:33:12.994Z,-2.58
2023-03-04T03:35:47.839Z,-2.57
2023-03-04T03:38:17.463Z,-2.51
2023-03-04T03:40:47.059Z,-2.48
2023-03-04T03:43:18.167Z,-2.43
2023-03-04T03:45:47.467Z,-2.47
2023-03-04T03:48:16.585Z,-2.39
2023-03-04T03:50:50.937Z,-2.42
2023-03-04T03:53:20.106Z,-2.43
2023-03-04T03:56:00.746Z,-2.33
2023-03-04T03:58:32.017Z,-2.27
2023-03-04T04:01:06.251Z,-2.39
2023-03-04T04:03:35.499Z,-2.25
2023-03-04T04:06:04.888Z,-2.19
2023-03-04T04:08:39.573Z,-2.18
2023-03-04T04:11:11.305Z,-2.19
2023-03-04T04:13:42.500Z,-2.21
2023-03-04T04:16:12.394Z,-2.22
2023-03-04T04:18:42.198Z,-2.20
2023-03-04T04:21:11.698Z,-2.43
2023-03-04T04:23:41.344Z,-2.16
2023-03-04T04:26:17.152Z,-2.30
2023-03-04T04:28:48.154Z,-2.05
2023-03-04T04:31:17.328Z,-2.05
2023-03-04T04:33:46.419Z,-2.06
2023-03-04T04:36:17.174Z,-2.06
2023-03-04T04:38:49.141Z,-2.01
2023-03-04T04:41:20.558Z,-1.89
2023-03-04T04:43:52.106Z,-1.91
2023-03-04T04:46:21.744Z,-1.97
2023-03-04T04:48:51.289Z,-2.18
2023-03-04T04:51:20.878Z,-2.15
2023-03-04T04:53:50.806Z,-2.15
2023-03-04T04:56:22.620Z,-2.02
2023-03-04T04:58:54.438Z,-2.09
2023-03-04T05:01:23.275Z,-1.84
2023-03-04T05:03:52.840Z,-1.89
2023-03-04T05:06:22.500Z,-1.86
2023-03-04T05:08:57.005Z,-1.83
2023-03-04T05:11:26.155Z,-1.79
2023-03-04T05:13:57.933Z,-1.81
2023-03-04T05:16:27.005Z,-1.85
2023-03-04T05:18:56.136Z,-1.80
2023-03-04T05:21:30.457Z,-1.80
2023-03-04T05:23:59.706Z,-1.83
2023-03-04T05:26:33.967Z,-1.84
2023-03-04T05:29:05.484Z,-1.67
2023-03-04T05:31:41.047Z,-1.51
2023-03-04T05:34:10.134Z,-1.25
2023-03-04T05:36:39.436Z,-1.00
2023-03-04T05:39:13.623Z,-0.76
2023-03-04T05:41:42.829Z,-0.67
2023-03-04T05:46:49.211Z,-0.78
2023-03-04T05:49:18.405Z,-0.46
2023-03-04T05:51:47.679Z,-0.49
2023-03-04T05:54:17.064Z,-0.40
2023-03-04T05:56:46.218Z,-0.34
2023-03-04T05:59:25.509Z,-0.28
2023-03-04T06:01:55.568Z,-0.13
2023-03-04T06:04:29.323Z,0.10
2023-03-04T06:06:59.996Z,0.10
2023-03-04T06:09:42.499Z,0.28
2023-03-04T06:12:14.602Z,0.46
2023-03-04T06:14:45.741Z,0.35
2023-03-04T06:17:14.894Z,0.30
2023-03-04T06:19:43.968Z,0.51
2023-03-04T06:22:13.483Z,0.82
2023-03-04T06:24:42.724Z,0.99
2023-03-04T06:27:17.766Z,1.02
2023-03-04T06:29:48.794Z,0.86
2023-03-04T06:32:23.158Z,0.71
2023-03-04T06:34:52.476Z,0.65
2023-03-04T06:37:21.790Z,0.49
2023-03-04T06:39:51.186Z,0.69
2023-03-04T06:42:20.455Z,1.13
2023-03-04T06:44:52.784Z,1.43
2023-03-04T06:47:25.685Z,1.35
2023-03-04T06:49:55.116Z,1.36
2023-03-04T06:52:24.623Z,1.46
2023-03-04T06:55:02.816Z,1.52
2023-03-04T06:57:32.518Z,1.84
2023-03-04T07:00:04.082Z,2.15
2023-03-04T07:02:34.979Z,2.36
2023-03-04T07:05:04.380Z,2.43
2023-03-04T07:07:33.455Z,2.45
2023-03-04T07:10:02.659Z,2.44
2023-03-04T07:12:32.501Z,2.35
2023-03-04T07:15:03.500Z,2.43
2023-03-04T07:17:39.482Z,2.49
2023-03-04T07:20:09.557Z,2.48
2023-03-04T07:22:38.846Z,2.98
2023-03-04T07:25:13.656Z,2.92
2023-03-04T07:27:42.809Z,2.71
2023-03-04T07:30:15.265Z,2.65
2023-03-04T07:32:44.503Z,2.60
2023-03-04T07:35:13.751Z,2.20
2023-03-04T07:37:43.068Z,2.53
2023-03-04T07:40:14.177Z,2.66
2023-03-04T07:42:43.980Z,2.82
2023-03-04T07:45:19.580Z,3.29
2023-03-04T07:50:24.237Z,3.77
2023-03-04T07:52:53.252Z,3.55
2023-03-04T07:55:32.656Z,3.44
2023-03-04T07:58:06.793Z,3.43
2023-03-04T08:00:37.905Z,3.91
2023-03-04T08:03:07.102Z,3.99
2023-03-04T08:05:36.295Z,4.02
2023-03-04T08:08:10.949Z,3.87
2023-03-04T08:10:40.537Z,3.92
2023-03-04T08:13:10.001Z,4.31
2023-03-04T08:15:45.333Z,4.37
2023-03-04T08:18:14.651Z,4.17
2023-03-04T08:20:44.895Z,3.70
2023-03-04T08:23:14.224Z,3.61
2023-03-04T08:25:44.160Z,3.43
2023-03-04T08:28:20.155Z,3.19
2023-03-04T08:30:56.868Z,2.98
2023-03-04T08:33:26.446Z,3.00
2023-03-04T08:35:55.668Z,3.15
2023-03-04T08:38:25.006Z,3.28
2023-03-04T08:40:55.256Z,3.52
2023-03-04T08:43:25.473Z,3.63
2023-03-04T08:45:57.238Z,3.90
2023-03-04T08:48:26.490Z,4.11
2023-03-04T08:50:56.159Z,4.24
2023-03-04T08:53:25.649Z,4.39
2023-03-04T08:55:54.963Z,4.69
2023-03-04T08:58:29.509Z,4.78
2023-03-04T09:01:01.394Z,4.81
2023-03-04T09:03:30.861Z,4.59
2023-03-04T09:06:00.213Z,4.53
2023-03-04T09:08:29.492Z,4.38
2023-03-04T09:10:58.958Z,4.37
2023-03-04T09:13:30.484Z,4.51
2023-03-04T09:16:11.541Z,4.47
2023-03-04T09:18:41.560Z,4.45
2023-03-04T09:21:11.270Z,4.50
2023-03-04T09:23:41.757Z,4.59
2023-03-04T09:26:23.914Z,4.50
2023-03-04T09:28:54.061Z,4.44
2023-03-04T09:31:30.765Z,4.92
2023-03-04T09:34:01.182Z,5.60
2023-03-04T09:36:31.006Z,6.08
2023-03-04T09:39:02.379Z,6.01
2023-03-04T09:41:39.130Z,5.73
2023-03-04T09:44:17.008Z,5.73
2023-03-04T09:46:50.377Z,5.38
2023-03-04T09:49:23.179Z,5.07
2023-03-04T09:51:58.917Z,4.83
2023-03-04T09:54:48.284Z,4.53
2023-03-04T09:57:28.156Z,4.25
2023-03-04T10:00:07.802Z,4.15
2023-03-04T10:02:52.157Z,4.09
2023-03-04T10:05:23.588Z,3.99
2023-03-04T10:07:59.962Z,3.72
2023-03-04T10:10:35.340Z,3.35
2023-03-04T10:13:07.012Z,3.31
2023-03-04T10:15:40.998Z,3.32
2023-03-04T10:18:20.727Z,3.21
2023-03-04T10:20:56.580Z,2.98
2023-03-04T10:23:33.567Z,2.90
2023-03-04T10:26:12.393Z,2.73
2023-03-04T10:28:46.644Z,2.74
2023-03-04T10:31:22.501Z,2.87
2023-03-04T10:34:00.224Z,3.17
2023-03-04T10:36:40.837Z,3.35
2023-03-04T10:39:13.296Z,3.57
2023-03-04T10:41:45.954Z,3.97
2023-03-04T10:44:18.937Z,4.32
2023-03-04T10:46:56.728Z,4.40
2023-03-04T10:49:29.640Z,4.54
2023-03-04T10:52:04.370Z,4.58
2023-03-04T10:54:39.135Z,4.58
2023-03-04T10:57:17.475Z,4.35
2023-03-04T10:59:57.275Z,4.28
2023-03-04T11:02:36.834Z,4.45
2023-03-04T11:05:19.956Z,4.59
2023-03-04T11:07:57.237Z,4.50
2023-03-04T11:10:35.992Z,4.26
2023-03-04T11:13:14.622Z,4.13
2023-03-04T11:15:54.867Z,3.97
2023-03-04T11:18:36.641Z,3.79
2023-03-04T11:21:09.131Z,3.80
2023-03-04T11:23:48.851Z,3.31
2023-03-04T11:26:33.537Z,3.28
2023-03-04T11:29:10.301Z,3.38
2023-03-04T11:31:48.385Z,3.29
2023-03-04T11:34:29.245Z,3.14
2023-03-04T11:37:05.413Z,3.14
2023-03-04T11:39:38.613Z,3.09
2023-03-04T11:42:15.469Z,3.04
2023-03-04T11:44:44.757Z,3.03
2023-03-04T11:47:33.246Z,2.91
2023-03-04T11:50:25.181Z,2.51
2023-03-04T11:53:16.780Z,2.47
2023-03-04T11:55:52.220Z,2.20
2023-03-04T11:58:42.064Z,2.13
2023-03-04T12:01:17.247Z,2.10
2023-03-04T12:04:09.556Z,1.97
2023-03-04T12:06:52.369Z,2.00
2023-03-04T12:09:40.189Z,2.03
2023-03-04T12:12:27.302Z,1.87
2023-03-04T12:15:06.563Z,1.54
2023-03-04T12:17:56.211Z,1.43
2023-03-04T12:23:43.361Z,1.45
2023-03-04T12:26:31.206Z,1.22
2023-03-04T12:29:15.852Z,1.20
2023-03-04T12:32:00.205Z,0.52
2023-03-04T12:34:35.079Z,0.85
2023-03-04T12:37:35.208Z,0.96
2023-03-04T12:40:25.164Z,1.15
2023-03-04T12:43:09.766Z,1.01
2023-03-04T12:53:13.912Z,0.91
2023-03-04T12:55:46.347Z,0.69
2023-03-04T13:01:15.522Z,0.63
2023-03-04T13:03:54.845Z,0.68
2023-03-04T13:06:46.089Z,0.67
2023-03-04T13:09:26.289Z,0.77
2023-03-04T13:12:05.272Z,0.64
2023-03-04T13:14:37.043Z,0.36
2023-03-04T13:17:43.311Z,0.54
2023-03-04T13:20:35.867Z,0.60
2023-03-04T13:23:06.216Z,0.67
2023-03-04T13:25:48.672Z,0.64
2023-03-04T13:28:31.606Z,0.62
2023-03-04T13:31:23.329Z,0.62
2023-03-04T13:34:01.229Z,0.62
2023-03-04T13:36:56.553Z,0.55
2023-03-04T13:39:34.265Z,0.68
2023-03-04T13:42:27.049Z,0.55
2023-03-04T13:45:03.014Z,0.59
2023-03-04T13:47:47.685Z,0.49
2023-03-04T13:50:43.212Z,0.46
2023-03-04T13:56:28.744Z,0.52
2023-03-04T13:59:39.065Z,0.49
2023-03-04T14:02:18.602Z,0.53
2023-03-04T14:04:49.500Z,0.44
2023-03-04T14:07:26.583Z,0.48
2023-03-04T14:09:57.888Z,0.43
2023-03-04T14:12:29.397Z,0.41
2023-03-04T14:15:01.145Z,0.37
2023-03-04T14:17:41.962Z,0.40
2023-03-04T14:20:27.105Z,0.37
2023-03-04T14:22:57.445Z,0.24
2023-03-04T14:25:28.479Z,0.13
2023-03-04T14:28:12.305Z,0.10
2023-03-04T14:30:44.428Z,0.02
2023-03-04T14:33:23.027Z,0.02
2023-03-04T14:35:54.299Z,-0.09
2023-03-04T14:41:09.493Z,-0.20
2023-03-04T14:43:44.400Z,-0.08
2023-03-04T14:46:18.477Z,-0.13
2023-03-04T14:48:57.871Z,-0.05
2023-03-04T14:51:33.183Z,-0.06
2023-03-04T14:54:02.549Z,-0.23
2023-03-04T14:56:32.520Z,-0.20
2023-03-04T14:59:02.165Z,-0.22
2023-03-04T15:01:34.330Z,-0.23
2023-03-04T15:04:08.313Z,-0.25
2023-03-04T15:06:40.897Z,-0.27
2023-03-04T15:09:21.064Z,-0.10
2023-03-04T15:11:57.585Z,-0.05
2023-03-04T15:14:45.454Z,-0.05
2023-03-04T15:17:31.241Z,-0.04
2023-03-04T15:20:22.847Z,-0.10
2023-03-04T15:23:08.035Z,-0.22
2023-03-04T15:25:37.815Z,-0.31
2023-03-04T15:28:14.411Z,-0.21
2023-03-04T15:30:43.616Z,-0.21
2023-03-04T15:33:21.407Z,-0.23
2023-03-04T15:35:57.713Z,-0.25
2023-03-04T15:38:33.793Z,-0.26
2023-03-04T15:41:03.030Z,-0.38
2023-03-04T15:43:38.864Z,-0.31
2023-03-04T15:46:08.198Z,-0.36
2023-03-04T15:48:37.458Z,-0.32
2023-03-04T15:51:15.733Z,-0.33
2023-03-04T15:53:47.922Z,-0.38
2023-03-04T15:56:24.534Z,-0.25
2023-03-04T15:59:00.628Z,-0.56
2023-03-04T16:01:30.258Z,-0.43
2023-03-04T16:03:59.557Z,-0.44
2023-03-04T16:06:38.114Z,-0.38
2023-03-04T16:09:10.234Z,-0.48
2023-03-04T16:11:45.175Z,-0.42
2023-03-04T16:14:14.876Z,-0.38
2023-03-04T16:16:46.469Z,-0.31
2023-03-04T16:19:15.813Z,-0.24
2023-03-04T16:21:47.398Z,-0.19
2023-03-04T16:24:19.524Z,-0.16
2023-03-04T16:26:49.130Z,-0.16
2023-03-04T16:29:23.488Z,-0.16
2023-03-04T16:31:52.909Z,-0.09
2023-03-04T16:34:22.037Z,-0.12
2023-03-04T16:36:53.148Z,-0.14
2023-03-04T16:39:25.869Z,-0.07
2023-03-04T16:41:55.312Z,-0.21
2023-03-04T16:44:30.128Z,-0.19
2023-03-04T16:49:34.099Z,-0.08
2023-03-04T16:52:05.514Z,-0.11
2023-03-04T16:54:39.953Z,-0.13
2023-03-04T16:57:10.577Z,-0.16
2023-03-04T16:59:39.717Z,-0.20
2023-03-04T17:02:16.120Z,-0.21
2023-03-04T17:04:46.463Z,-0.20
2023-03-04T17:07:23.429Z,-0.18
2023-03-04T17:09:52.649Z,-0.15
2023-03-04T17:12:21.687Z,-0.12
2023-03-04T17:17:33.897Z,-0.06
2023-03-04T17:20:10.849Z,0.00
2023-03-04T17:22:42.095Z,-0.07
2023-03-04T17:25:12.029Z,-0.03
2023-03-04T17:27:41.710Z,-0.02
2023-03-04T17:30:16.631Z,-0.03
2023-03-04T17:32:45.748Z,-0.09
2023-03-04T17:35:15.131Z,-0.03
2023-03-04T17:37:46.249Z,-0.03
2023-03-04T17:40:15.978Z,-0.01
2023-03-04T17:42:45.470Z,0.03
2023-03-04T17:45:14.666Z,0.06
2023-03-04T17:47:43.789Z,0.08
2023-03-04T17:50:14.526Z,0.11
2023-03-04T17:52:45.783Z,0.12
2023-03-04T17:55:15.019Z,0.09
2023-03-04T17:57:44.045Z,0.05
2023-03-04T18:00:19.704Z,-0.01
2023-03-04T18:02:51.308Z,-0.09
2023-03-04T18:08:02.961Z,-0.16
2023-03-04T18:10:32.678Z,-0.16
2023-03-04T18:13:03.130Z,-0.33
2023-03-04T18:15:32.402Z,-0.34
2023-03-04T18:20:36.191Z,-0.59
2023-03-04T18:23:07.352Z,-0.64
2023-03-04T18:25:36.706Z,-0.68
2023-03-04T18:28:06.079Z,-0.94
2023-03-04T18:30:40.438Z,-0.69
2023-03-04T18:33:09.641Z,-0.64
2023-03-04T18:35:38.971Z,-0.62
2023-03-04T18:38:15.191Z,-0.74
2023-03-04T18:40:45.331Z,-0.71
2023-03-04T18:43:24.587Z,-0.85
2023-03-04T18:46:02.600Z,-0.92
2023-03-04T18:48:34.576Z,-1.25
2023-03-04T18:51:04.272Z,-0.86
2023-03-04T18:53:35.826Z,-0.72
2023-03-04T18:56:12.379Z,-0.62
2023-03-04T18:58:45.781Z,-0.57
2023-03-04T19:01:16.761Z,-0.55
2023-03-04T19:03:47.584Z,-0.58
2023-03-04T19:06:17.149Z,-0.56
2023-03-04T19:08:55.406Z,-0.59
2023-03-04T19:11:24.674Z,-0.62
2023-03-04T19:13:54.095Z,-0.53
2023-03-04T19:16:28.789Z,-0.57
2023-03-04T19:18:57.974Z,-0.61
2023-03-04T19:21:35.051Z,-0.69
2023-03-04T19:24:06.644Z,-0.67
2023-03-04T19:26:40.917Z,-0.64
2023-03-04T19:29:10.127Z,-0.62
2023-03-04T19:31:41.657Z,-0.66
2023-03-04T19:34:16.862Z,-0.62
2023-03-04T19:36:46.036Z,-0.68
2023-03-04T19:39:18.175Z,-0.68
2023-03-04T19:41:47.772Z,-0.73
2023-03-04T19:44:16.937Z,-0.78
2023-03-04T19:46:51.293Z,-0.78
2023-03-04T19:49:20.464Z,-0.72
2023-03-04T19:51:49.667Z,-0.75
2023-03-04T19:54:20.771Z,-0.72
2023-03-04T19:56:50.140Z,-0.64
2023-03-04T19:59:24.253Z,-0.69
2023-03-04T20:02:00.751Z,-0.72
2023-03-04T20:04:30.303Z,-0.83
2023-03-04T20:06:59.419Z,-0.76
2023-03-04T20:09:30.533Z,-0.79
2023-03-04T20:11:59.690Z,-0.80
2023-03-04T20:14:29.130Z,-0.84
2023-03-04T20:17:06.633Z,-0.87
2023-03-04T20:19:36.579Z,-0.85
2023-03-04T20:22:06.645Z,-1.00
2023-03-04T20:24:38.101Z,-0.87
2023-03-04T20:27:07.223Z,-0.91
2023-03-04T20:29:36.342Z,-0.89
2023-03-04T20:32:06.319Z,-0.89
2023-03-04T20:34:36.402Z,-0.97
2023-03-04T20:37:05.631Z,-1.01
2023-03-04T20:39:34.729Z,-1.01
2023-03-04T20:42:06.281Z,-1.29
2023-03-04T20:44:35.848Z,-1.23
2023-03-04T20:47:05.305Z,-1.27
2023-03-04T20:49:34.738Z,-1.18
2023-03-04T20:52:06.004Z,-1.14
2023-03-04T20:54:36.032Z,-1.06
2023-03-04T20:57:08.384Z,-1.15
2023-03-04T20:59:43.138Z,-1.19
2023-03-04T21:04:57.347Z,-1.14
2023-03-04T21:07:26.597Z,-1.33
2023-03-04T21:09:56.604Z,-1.22
2023-03-04T21:12:27.751Z,-1.21
2023-03-04T21:15:00.190Z,-1.20
2023-03-04T21:17:29.484Z,-1.23
2023-03-04T21:19:58.647Z,-1.24
2023-03-04T21:22:28.633Z,-1.38
2023-03-04T21:25:02.874Z,-1.30
2023-03-04T21:27:38.244Z,-1.28
2023-03-04T21:30:14.019Z,-1.28
2023-03-04T21:32:43.579Z,-1.35
2023-03-04T21:35:16.024Z,-1.35
2023-03-04T21:37:45.350Z,-1.32
2023-03-04T21:40:15.455Z,-1.46
2023-03-04T21:42:51.632Z,-1.35
2023-03-04T21:45:21.361Z,-1.43
2023-03-04T21:47:51.053Z,-1.35
2023-03-04T21:50:20.587Z,-1.51
2023-03-04T21:52:49.957Z,-1.36
2023-03-04T21:55:19.245Z,-1.41
2023-03-04T21:57:50.326Z,-1.45
2023-03-04T22:00:21.402Z,-1.55
2023-03-04T22:02:50.895Z,-1.37
2023-03-04T22:05:20.576Z,-1.38
2023-03-04T22:07:49.878Z,-1.47
2023-03-04T22:10:19.879Z,-1.47
2023-03-04T22:12:51.108Z,-1.41
2023-03-04T22:15:20.434Z,-1.39
2023-03-04T22:17:49.525Z,-1.44
2023-03-04T22:20:19.862Z,-1.42
2023-03-04T22:22:49.107Z,-1.46
2023-03-04T22:25:18.384Z,-1.43
2023-03-04T22:30:30.393Z,-1.41
2023-03-04T22:32:59.906Z,-1.42
2023-03-04T22:35:35.880Z,-1.46
2023-03-04T22:38:05.044Z,-1.46
2023-03-04T22:40:35.194Z,-1.53
2023-03-04T22:43:06.615Z,-1.42
2023-03-04T22:45:41.814Z,-1.49
2023-03-04T22:48:11.030Z,-1.46
2023-03-04T22:50:40.232Z,-1.45
2023-03-04T22:53:09.687Z,-1.45
2023-03-04T22:55:38.925Z,-1.53
2023-03-04T22:58:09.936Z,-1.52
2023-03-04T23:00:44.177Z,-1.51
2023-03-04T23:03:13.379Z,-1.46
2023-03-04T23:05:42.575Z,-1.52
2023-03-04T23:08:11.884Z,-1.52
2023-03-04T23:10:43.566Z,-1.55
2023-03-04T23:13:15.017Z,-1.54
2023-03-04T23:15:44.231Z,-1.52
2023-03-04T23:18:13.439Z,-1.59
2023-03-04T23:23:18.996Z,-1.61
2023-03-04T23:25:51.478Z,-1.63
2023-03-04T23:28:23.255Z,-1.63
2023-03-04T23:30:57.414Z,-1.61
2023-03-04T23:33:26.767Z,-1.65
2023-03-04T23:35:55.895Z,-1.67
2023-03-04T23:38:25.212Z,-1.65
2023-03-04T23:43:31.479Z,-1.66
2023-03-04T23:46:00.902Z,-1.63
2023-03-04T23:48:30.102Z,-1.66
2023-03-04T23:51:04.463Z,-1.81
2023-03-04T23:53:39.892Z,-1.70
2023-03-04T23:56:11.124Z,-1.67
2023-03-04T23:58:43.004Z,-1.63
